createdAt,value
2018-10-03T00:00:40.039Z,16.43
2018-10-03T00:01:43.523Z,16.90
2018-10-03T00:02:47.002Z,13.07
2018-10-03T00:03:50.535Z,15.23
2018-10-03T00:04:54.050Z,12.57
2018-10-03T00:05:57.718Z,16.17
2018-10-03T00:07:01.260Z,12.40
2018-10-03T00:08:04.817Z,12.50
2018-10-03T00:09:08.931Z,18.33
2018-10-03T00:10:12.485Z,13.67
2018-10-03T00:11:15.924Z,11.00
2018-10-03T00:12:19.473Z,18.63
2018-10-03T00:13:22.930Z,15.53
2018-10-03T00:14:26.383Z,16.67
2018-10-03T00:15:29.915Z,10.60
2018-10-03T00:16:33.425Z,18.40
2018-10-03T00:17:36.933Z,15.13
2018-10-03T00:18:40.424Z,12.87
2018-10-03T00:19:43.934Z,16.20
2018-10-03T00:20:47.477Z,15.47
2018-10-03T00:21:50.924Z,14.47
2018-10-03T00:22:54.467Z,17.37
2018-10-03T00:23:57.977Z,16.87
2018-10-03T00:25:01.743Z,9.10
2018-10-03T00:26:05.230Z,11.17
2018-10-03T00:27:08.717Z,12.67
2018-10-03T00:28:12.272Z,14.57
2018-10-03T00:29:15.841Z,16.30
2018-10-03T00:30:19.350Z,11.57
2018-10-03T00:31:22.841Z,13.50
2018-10-03T00:32:26.397Z,16.13
2018-10-03T00:33:29.894Z,24.87
2018-10-03T00:34:34.400Z,17.37
2018-10-03T00:35:37.845Z,11.77
2018-10-03T00:36:41.358Z,22.13
2018-10-03T00:37:44.985Z,13.60
2018-10-03T00:38:48.506Z,13.40
2018-10-03T00:39:52.007Z,13.10
2018-10-03T00:40:55.529Z,17.23
2018-10-03T00:41:59.037Z,18.30
2018-10-03T00:43:02.590Z,16.93
2018-10-03T00:44:06.309Z,15.17
2018-10-03T00:45:09.832Z,13.97
2018-10-03T00:46:13.438Z,14.57
2018-10-03T00:47:17.017Z,16.63
2018-10-03T00:48:20.563Z,11.93
2018-10-03T00:49:24.249Z,15.97
2018-10-03T00:50:27.737Z,15.60
2018-10-03T00:51:31.200Z,16.03
2018-10-03T00:52:34.667Z,14.37
2018-10-03T00:53:38.417Z,13.00
2018-10-03T00:54:41.948Z,11.47
2018-10-03T00:55:45.424Z,13.30
2018-10-03T00:56:48.943Z,14.37
2018-10-03T00:57:52.544Z,10.53
2018-10-03T00:58:56.057Z,12.93
2018-10-03T00:59:59.595Z,17.57
2018-10-03T01:01:03.135Z,12.93
2018-10-03T01:02:06.708Z,16.77
2018-10-03T01:03:10.211Z,15.83
2018-10-03T01:04:13.704Z,17.20
2018-10-03T01:05:17.224Z,22.60
2018-10-03T01:06:20.722Z,11.50
2018-10-03T01:07:24.243Z,19.03
2018-10-03T01:08:27.694Z,18.50
2018-10-03T01:09:31.264Z,17.03
2018-10-03T01:10:34.893Z,10.63
2018-10-03T01:11:38.417Z,10.73
2018-10-03T01:12:41.989Z,10.03
2018-10-03T01:13:45.558Z,13.53
2018-10-03T01:14:49.087Z,13.03
2018-10-03T01:15:52.690Z,17.13
2018-10-03T01:16:56.212Z,14.10
2018-10-03T01:17:59.897Z,13.17
2018-10-03T01:19:03.417Z,16.33
2018-10-03T01:20:06.953Z,13.47
2018-10-03T01:21:10.523Z,11.93
2018-10-03T01:22:13.978Z,11.20
2018-10-03T01:23:17.452Z,15.90
2018-10-03T01:24:21.366Z,10.50
2018-10-03T01:25:24.968Z,14.90
2018-10-03T01:26:28.462Z,12.00
2018-10-03T01:27:31.963Z,14.50
2018-10-03T01:28:35.598Z,16.43
2018-10-03T01:29:39.100Z,12.23
2018-10-03T01:30:42.679Z,16.50
2018-10-03T01:31:46.255Z,12.90
2018-10-03T01:32:50.831Z,12.47
2018-10-03T01:33:54.555Z,13.23
2018-10-03T01:34:58.039Z,9.77
2018-10-03T01:36:01.530Z,10.47
2018-10-03T01:37:05.079Z,12.77
2018-10-03T01:38:08.585Z,11.47
2018-10-03T01:39:12.111Z,16.93
2018-10-03T01:40:15.746Z,13.43
2018-10-03T01:41:19.261Z,10.53
2018-10-03T01:42:22.779Z,9.47
2018-10-03T01:43:26.277Z,16.73
2018-10-03T01:44:29.918Z,16.10
2018-10-03T01:45:33.418Z,12.77
2018-10-03T01:46:36.894Z,10.67
2018-10-03T01:47:40.488Z,11.90
2018-10-03T01:48:44.410Z,10.23
2018-10-03T01:49:47.915Z,11.60
2018-10-03T01:50:51.458Z,14.47
2018-10-03T01:51:54.935Z,11.57
2018-10-03T01:52:58.430Z,15.80
2018-10-03T01:54:02.074Z,12.20
2018-10-03T01:55:05.777Z,13.13
2018-10-03T01:56:09.262Z,18.73
2018-10-03T01:57:12.822Z,11.07
2018-10-03T01:58:16.273Z,12.30
2018-10-03T01:59:21.397Z,14.90
2018-10-03T02:00:24.862Z,12.57
2018-10-03T02:01:28.542Z,12.90
2018-10-03T02:02:32.034Z,13.53
2018-10-03T02:03:35.577Z,15.57
2018-10-03T02:04:39.057Z,16.20
2018-10-03T02:05:42.811Z,10.17
2018-10-03T02:06:46.821Z,15.97
2018-10-03T02:07:50.326Z,19.10
2018-10-03T02:08:53.892Z,13.93
2018-10-03T02:09:57.392Z,15.87
2018-10-03T02:11:00.926Z,16.37
2018-10-03T02:12:04.465Z,15.33
2018-10-03T02:13:07.919Z,14.83
2018-10-03T02:14:11.474Z,10.37
2018-10-03T02:15:14.964Z,13.37
2018-10-03T02:16:18.441Z,13.70
2018-10-03T02:17:21.954Z,13.80
2018-10-03T02:18:25.429Z,12.47
2018-10-03T02:19:28.967Z,16.43
2018-10-03T02:20:32.441Z,10.70
2018-10-03T02:21:35.942Z,16.10
2018-10-03T02:22:39.449Z,17.23
2018-10-03T02:23:43.649Z,13.30
2018-10-03T02:24:47.653Z,8.93
2018-10-03T02:25:51.130Z,12.50
2018-10-03T02:26:54.624Z,10.63
2018-10-03T02:27:58.211Z,12.23
2018-10-03T02:29:02.354Z,11.63
2018-10-03T02:30:06.481Z,12.60
2018-10-03T02:31:09.991Z,13.93
2018-10-03T02:32:13.532Z,13.03
2018-10-03T02:33:17.030Z,13.37
2018-10-03T02:34:20.532Z,15.77
2018-10-03T02:35:24.063Z,16.43
2018-10-03T02:36:27.543Z,7.80
2018-10-03T02:37:31.110Z,11.73
2018-10-03T02:38:34.618Z,13.47
2018-10-03T02:39:38.103Z,14.10
2018-10-03T02:40:41.734Z,7.53
2018-10-03T02:41:45.263Z,13.03
2018-10-03T02:42:48.988Z,16.33
2018-10-03T02:43:52.533Z,11.03
2018-10-03T02:44:55.985Z,6.97
2018-10-03T02:45:59.577Z,14.57
2018-10-03T02:47:03.140Z,14.77
2018-10-03T02:48:06.645Z,13.87
2018-10-03T02:49:10.210Z,12.37
2018-10-03T02:50:13.688Z,13.17
2018-10-03T02:51:17.209Z,18.23
2018-10-03T02:52:20.724Z,10.80
2018-10-03T02:53:24.227Z,11.30
2018-10-03T02:54:27.745Z,10.70
2018-10-03T02:55:31.262Z,19.80
2018-10-03T02:56:34.782Z,14.97
2018-10-03T02:57:38.366Z,22.77
2018-10-03T02:58:42.067Z,12.17
2018-10-03T02:59:45.569Z,16.50
2018-10-03T03:00:49.433Z,13.53
2018-10-03T03:01:52.969Z,15.43
2018-10-03T03:02:56.447Z,10.83
2018-10-03T03:03:59.958Z,17.63
2018-10-03T03:05:03.473Z,18.57
2018-10-03T03:06:07.997Z,14.70
2018-10-03T03:07:11.535Z,12.80
2018-10-03T03:08:15.042Z,16.37
2018-10-03T03:09:18.540Z,19.77
2018-10-03T03:10:22.225Z,11.30
2018-10-03T03:11:25.781Z,14.10
2018-10-03T03:12:29.340Z,15.10
2018-10-03T03:13:32.967Z,14.77
2018-10-03T03:14:36.555Z,13.97
2018-10-03T03:15:40.079Z,13.33
2018-10-03T03:16:43.687Z,17.43
2018-10-03T03:17:47.190Z,14.33
2018-10-03T03:18:50.858Z,16.20
2018-10-03T03:19:55.031Z,14.23
2018-10-03T03:20:59.846Z,15.60
2018-10-03T03:22:03.401Z,17.07
2018-10-03T03:23:06.950Z,16.67
2018-10-03T03:24:10.497Z,13.17
2018-10-03T03:25:14.014Z,19.20
2018-10-03T03:26:17.487Z,13.97
2018-10-03T03:27:20.988Z,8.80
2018-10-03T03:28:24.670Z,14.43
2018-10-03T03:29:28.153Z,20.37
2018-10-03T03:30:31.638Z,17.07
2018-10-03T03:31:35.217Z,15.87
2018-10-03T03:32:38.704Z,16.73
2018-10-03T03:33:42.827Z,12.57
2018-10-03T03:34:47.503Z,12.53
2018-10-03T03:35:51.036Z,16.03
2018-10-03T03:36:54.670Z,14.67
2018-10-03T03:37:58.267Z,15.30
2018-10-03T03:39:01.781Z,13.90
2018-10-03T03:40:05.395Z,14.60
2018-10-03T03:41:08.949Z,17.73
2018-10-03T03:42:13.376Z,18.33
2018-10-03T03:43:17.073Z,13.13
2018-10-03T03:44:20.814Z,21.23
2018-10-03T03:45:24.450Z,16.97
2018-10-03T03:46:28.762Z,19.63
2018-10-03T03:47:32.429Z,16.40
2018-10-03T03:48:35.993Z,25.37
2018-10-03T03:49:39.581Z,19.17
2018-10-03T03:50:43.275Z,12.20
2018-10-03T03:51:46.909Z,15.07
2018-10-03T03:52:51.083Z,18.03
2018-10-03T03:53:54.719Z,16.07
2018-10-03T03:54:58.429Z,19.57
2018-10-03T03:56:02.096Z,20.57
2018-10-03T03:57:05.754Z,15.93
2018-10-03T03:58:09.648Z,16.70
2018-10-03T03:59:13.371Z,14.13
2018-10-03T04:00:17.145Z,14.97
2018-10-03T04:01:20.797Z,15.93
2018-10-03T04:02:24.516Z,13.13
2018-10-03T04:03:28.085Z,14.70
2018-10-03T04:04:31.667Z,15.60
2018-10-03T04:05:35.367Z,16.17
2018-10-03T04:06:45.929Z,17.53
2018-10-03T04:08:10.468Z,14.10
2018-10-03T04:09:22.938Z,16.47
2018-10-03T04:10:37.327Z,21.57
2018-10-03T04:11:48.552Z,23.23
2018-10-03T04:12:59.737Z,11.70
2018-10-03T04:14:09.863Z,11.53
2018-10-03T04:15:13.723Z,18.93
2018-10-03T04:16:17.269Z,15.93
2018-10-03T04:17:20.755Z,17.87
2018-10-03T04:18:24.315Z,15.67
2018-10-03T04:19:27.786Z,16.50
2018-10-03T04:20:31.281Z,13.13
2018-10-03T04:21:37.105Z,15.00
2018-10-03T04:22:40.646Z,13.13
2018-10-03T04:23:44.105Z,14.27
2018-10-03T04:24:47.602Z,20.33
2018-10-03T04:25:52.030Z,15.70
2018-10-03T04:26:55.499Z,14.10
2018-10-03T04:27:59.050Z,15.27
2018-10-03T04:29:02.830Z,16.80
2018-10-03T04:30:18.849Z,13.07
2018-10-03T04:31:46.790Z,11.40
2018-10-03T04:33:22.779Z,12.97
2018-10-03T04:36:26.563Z,17.27
2018-10-03T04:37:39.402Z,13.20
2018-10-03T04:39:11.807Z,16.90
2018-10-03T04:40:25.926Z,18.47
2018-10-03T04:41:30.401Z,16.17
2018-10-03T04:42:34.037Z,18.37
2018-10-03T04:43:37.614Z,16.20
2018-10-03T04:44:41.145Z,18.57
2018-10-03T04:45:44.649Z,11.90
2018-10-03T04:46:50.028Z,16.17
2018-10-03T04:47:53.518Z,13.57
2018-10-03T04:48:57.107Z,16.17
2018-10-03T04:50:00.715Z,15.97
2018-10-03T04:51:04.201Z,14.53
2018-10-03T04:52:07.779Z,17.03
2018-10-03T04:53:11.286Z,16.83
2018-10-03T04:54:14.785Z,14.67
2018-10-03T04:55:18.254Z,21.47
2018-10-03T04:56:21.742Z,16.37
2018-10-03T04:57:25.267Z,11.30
2018-10-03T04:58:28.737Z,14.13
2018-10-03T04:59:32.233Z,18.30
2018-10-03T05:00:35.709Z,22.80
2018-10-03T05:01:39.151Z,14.20
2018-10-03T05:02:42.682Z,11.80
2018-10-03T05:03:46.221Z,15.03
2018-10-03T05:04:50.114Z,16.30
2018-10-03T05:05:53.591Z,17.03
2018-10-03T05:06:57.332Z,13.17
2018-10-03T05:08:00.843Z,16.43
2018-10-03T05:09:05.667Z,17.43
2018-10-03T05:10:09.155Z,25.40
2018-10-03T05:11:12.863Z,15.10
2018-10-03T05:12:16.330Z,14.97
2018-10-03T05:13:19.811Z,19.37
2018-10-03T05:14:23.278Z,10.13
2018-10-03T05:15:26.750Z,19.97
2018-10-03T05:16:30.250Z,17.07
2018-10-03T05:17:33.715Z,12.67
2018-10-03T05:18:37.201Z,20.00
2018-10-03T05:19:40.681Z,12.93
2018-10-03T05:20:44.182Z,14.57
2018-10-03T05:21:47.746Z,16.93
2018-10-03T05:22:51.638Z,15.73
2018-10-03T05:23:55.152Z,11.77
2018-10-03T05:24:58.689Z,14.13
2018-10-03T05:26:10.223Z,16.83
2018-10-03T05:27:13.769Z,8.90
2018-10-03T05:28:18.591Z,9.20
2018-10-03T05:29:22.554Z,18.50
2018-10-03T05:30:26.070Z,12.17
2018-10-03T05:31:29.701Z,13.60
2018-10-03T05:32:33.289Z,10.30
2018-10-03T05:33:37.261Z,17.03
2018-10-03T05:34:40.771Z,11.30
2018-10-03T05:35:44.230Z,10.10
2018-10-03T05:36:48.701Z,8.63
2018-10-03T05:37:52.728Z,15.73
2018-10-03T05:38:56.217Z,12.13
2018-10-03T05:39:59.768Z,12.17
2018-10-03T05:41:03.259Z,13.63
2018-10-03T05:42:06.777Z,13.27
2018-10-03T05:43:10.620Z,11.30
2018-10-03T05:44:14.119Z,16.90
2018-10-03T05:45:18.628Z,11.50
2018-10-03T05:46:22.075Z,15.70
2018-10-03T05:47:26.802Z,13.83
2018-10-03T05:48:30.316Z,13.93
2018-10-03T05:49:33.789Z,12.80
2018-10-03T05:50:37.367Z,13.63
2018-10-03T05:51:41.306Z,12.97
2018-10-03T05:52:45.414Z,15.67
2018-10-03T05:53:48.887Z,15.57
2018-10-03T05:54:53.005Z,10.20
2018-10-03T05:55:56.529Z,11.73
2018-10-03T05:56:59.977Z,12.87
2018-10-03T05:58:03.447Z,11.57
2018-10-03T05:59:07.549Z,16.63
2018-10-03T06:00:11.084Z,16.23
2018-10-03T06:01:14.702Z,15.03
2018-10-03T06:02:18.260Z,12.77
2018-10-03T06:03:21.879Z,14.40
2018-10-03T06:04:25.500Z,12.05
2018-10-03T06:05:28.972Z,15.77
2018-10-03T06:06:32.475Z,17.10
2018-10-03T06:07:35.948Z,11.60
2018-10-03T06:08:39.432Z,15.73
2018-10-03T06:09:43.442Z,15.10
2018-10-03T06:10:46.992Z,11.60
2018-10-03T06:11:50.623Z,11.13
2018-10-03T06:12:54.829Z,13.77
2018-10-03T06:13:58.333Z,13.07
2018-10-03T06:15:01.812Z,17.07
2018-10-03T06:16:05.419Z,11.70
2018-10-03T06:17:09.043Z,16.63
2018-10-03T06:18:12.584Z,11.73
2018-10-03T06:19:16.101Z,19.50
2018-10-03T06:20:19.720Z,13.63
2018-10-03T06:21:23.178Z,13.43
2018-10-03T06:22:26.926Z,13.90
2018-10-03T06:23:30.440Z,17.30
2018-10-03T06:24:33.908Z,17.17
2018-10-03T06:25:37.363Z,10.53
2018-10-03T06:26:40.928Z,10.50
2018-10-03T06:27:44.403Z,12.60
2018-10-03T06:28:47.906Z,14.83
2018-10-03T06:29:51.500Z,15.67
2018-10-03T06:30:55.423Z,12.03
2018-10-03T06:31:58.979Z,19.97
2018-10-03T06:33:02.819Z,13.13
2018-10-03T06:34:07.041Z,11.50
2018-10-03T06:35:11.042Z,11.87
2018-10-03T06:36:14.654Z,13.43
2018-10-03T06:37:18.180Z,14.67
2018-10-03T06:38:21.773Z,16.67
2018-10-03T06:39:25.522Z,19.53
2018-10-03T06:40:28.974Z,10.70
2018-10-03T06:41:32.974Z,17.70
2018-10-03T06:42:36.478Z,12.07
2018-10-03T06:43:39.953Z,16.73
2018-10-03T06:44:44.172Z,10.47
2018-10-03T06:45:47.862Z,13.13
2018-10-03T06:46:51.280Z,14.27
2018-10-03T06:47:55.152Z,12.03
2018-10-03T06:48:59.228Z,13.77
2018-10-03T06:50:02.917Z,15.50
2018-10-03T06:51:08.565Z,12.83
2018-10-03T06:52:12.327Z,16.17
2018-10-03T06:53:15.828Z,18.75
2018-10-03T06:54:19.295Z,13.25
2018-10-03T06:55:23.274Z,13.93
2018-10-03T06:56:27.000Z,12.87
2018-10-03T06:57:30.503Z,15.73
2018-10-03T06:58:33.997Z,10.03
2018-10-03T06:59:37.669Z,12.67
2018-10-03T07:00:42.019Z,9.83
2018-10-03T07:01:46.413Z,15.40
2018-10-03T07:02:50.060Z,17.40
2018-10-03T07:03:53.594Z,14.27
2018-10-03T07:04:57.079Z,12.33
2018-10-03T07:06:00.606Z,14.63
2018-10-03T07:07:04.169Z,14.53
2018-10-03T07:08:07.761Z,14.13
2018-10-03T07:09:11.305Z,10.07
2018-10-03T07:10:15.590Z,13.03
2018-10-03T07:11:19.125Z,7.90
2018-10-03T07:12:22.609Z,14.30
2018-10-03T07:13:26.106Z,16.43
2018-10-03T07:14:30.532Z,13.00
2018-10-03T07:15:33.988Z,11.83
2018-10-03T07:16:37.725Z,15.67
2018-10-03T07:17:41.230Z,15.43
2018-10-03T07:18:45.025Z,13.05
2018-10-03T07:19:49.055Z,15.37
2018-10-03T07:20:53.106Z,10.83
2018-10-03T07:21:56.587Z,9.97
2018-10-03T07:23:01.013Z,18.07
2018-10-03T07:24:04.509Z,16.13
2018-10-03T07:25:07.974Z,18.03
2018-10-03T07:26:11.689Z,12.33
2018-10-03T07:27:15.148Z,12.53
2018-10-03T07:28:18.670Z,15.93
2018-10-03T07:29:22.236Z,12.47
2018-10-03T07:30:25.812Z,17.55
2018-10-03T07:31:29.985Z,12.47
2018-10-03T07:32:33.701Z,11.70
2018-10-03T07:33:37.192Z,10.45
2018-10-03T07:34:40.710Z,9.53
2018-10-03T07:35:44.398Z,16.85
2018-10-03T07:36:47.967Z,14.03
2018-10-03T07:37:51.486Z,9.40
2018-10-03T07:38:55.550Z,11.15
2018-10-03T07:39:59.182Z,14.47
2018-10-03T07:41:02.754Z,15.50
2018-10-03T07:42:06.398Z,14.03
2018-10-03T07:43:10.098Z,11.50
2018-10-03T07:44:13.944Z,10.63
2018-10-03T07:45:17.548Z,16.67
2018-10-03T07:46:21.091Z,14.05
2018-10-03T07:47:24.724Z,10.20
2018-10-03T07:48:30.034Z,10.83
2018-10-03T07:49:33.660Z,10.08
2018-10-03T07:50:37.363Z,12.13
2018-10-03T07:51:40.920Z,10.55
2018-10-03T07:52:44.509Z,14.07
2018-10-03T07:53:48.120Z,13.22
2018-10-03T07:54:51.784Z,11.12
2018-10-03T07:55:55.534Z,11.88
2018-10-03T07:56:59.378Z,17.27
2018-10-03T07:58:03.136Z,11.63
2018-10-03T07:59:07.078Z,13.75
2018-10-03T08:00:10.734Z,11.35
2018-10-03T08:01:14.359Z,13.50
2018-10-03T08:02:18.441Z,13.53
2018-10-03T08:03:22.066Z,13.30
2018-10-03T08:04:26.305Z,12.40
2018-10-03T08:05:30.126Z,13.08
2018-10-03T08:06:33.740Z,13.00
2018-10-03T08:07:37.454Z,12.03
2018-10-03T08:08:41.070Z,8.48
2018-10-03T08:09:44.838Z,10.90
2018-10-03T08:10:48.511Z,12.18
2018-10-03T08:11:52.166Z,10.03
2018-10-03T08:12:55.812Z,14.03
2018-10-03T08:13:59.536Z,11.45
2018-10-03T08:15:03.295Z,13.98
2018-10-03T08:16:07.010Z,10.63
2018-10-03T08:17:10.772Z,10.10
2018-10-03T08:18:14.482Z,13.10
2018-10-03T08:19:18.101Z,11.12
2018-10-03T08:20:21.850Z,14.40
2018-10-03T08:21:25.480Z,15.53
2018-10-03T08:22:29.386Z,13.62
2018-10-03T08:23:33.188Z,12.98
2018-10-03T08:24:36.898Z,19.87
2018-10-03T08:25:41.126Z,11.35
2018-10-03T08:26:45.514Z,9.08
2018-10-03T08:27:49.256Z,11.38
2018-10-03T08:28:53.182Z,8.10
2018-10-03T08:29:56.869Z,11.05
2018-10-03T08:31:00.497Z,13.60
2018-10-03T08:32:04.138Z,16.77
2018-10-03T08:33:07.800Z,19.62
2018-10-03T08:34:12.631Z,15.38
2018-10-03T08:35:16.980Z,12.53
2018-10-03T08:36:20.659Z,12.68
2018-10-03T08:37:24.241Z,8.48
2018-10-03T08:38:27.897Z,11.48
2018-10-03T08:39:31.594Z,8.03
2018-10-03T08:40:35.366Z,15.00
2018-10-03T08:41:39.016Z,8.80
2018-10-03T08:42:42.676Z,11.55
2018-10-03T08:43:46.301Z,8.68
2018-10-03T08:44:49.896Z,14.00
2018-10-03T08:45:53.528Z,11.18
2018-10-03T08:46:57.216Z,11.43
2018-10-03T08:48:01.493Z,8.48
2018-10-03T08:49:05.332Z,10.88
2018-10-03T08:50:11.046Z,12.75
2018-10-03T08:51:15.066Z,11.65
2018-10-03T08:52:18.757Z,16.85
2018-10-03T08:53:22.486Z,10.63
2018-10-03T08:54:26.295Z,10.32
2018-10-03T08:55:29.933Z,8.93
2018-10-03T08:56:33.598Z,11.28
2018-10-03T08:57:37.658Z,9.93
2018-10-03T08:58:41.390Z,13.45
2018-10-03T08:59:44.959Z,11.88
2018-10-03T09:00:48.669Z,10.75
2018-10-03T09:01:52.331Z,9.75
2018-10-03T09:02:55.858Z,7.62
2018-10-03T09:03:59.464Z,14.53
2018-10-03T09:05:03.090Z,13.43
2018-10-03T09:06:06.734Z,9.08
2018-10-03T09:07:10.332Z,10.25
2018-10-03T09:08:15.410Z,11.50
2018-10-03T09:09:19.106Z,11.15
2018-10-03T09:10:22.732Z,10.20
2018-10-03T09:11:26.409Z,9.90
2018-10-03T09:12:30.165Z,9.48
2018-10-03T09:13:33.805Z,8.78
2018-10-03T09:14:37.572Z,9.50
2018-10-03T09:15:41.291Z,8.48
2018-10-03T09:16:44.939Z,9.03
2018-10-03T09:17:48.601Z,8.43
2018-10-03T09:18:52.266Z,7.85
2018-10-03T09:19:55.902Z,10.00
2018-10-03T09:20:59.556Z,10.35
2018-10-03T09:22:03.204Z,7.12
2018-10-03T09:23:07.225Z,12.30
2018-10-03T09:24:11.230Z,10.48
2018-10-03T09:25:15.035Z,9.55
2018-10-03T09:26:18.659Z,11.22
2018-10-03T09:27:22.374Z,7.33
2018-10-03T09:28:26.057Z,10.68
2018-10-03T09:29:29.692Z,9.30
2018-10-03T09:30:33.323Z,8.10
2018-10-03T09:31:37.073Z,13.08
2018-10-03T09:32:40.698Z,9.83
2018-10-03T09:33:44.289Z,7.80
2018-10-03T09:34:48.006Z,8.18
2018-10-03T09:35:51.662Z,7.75
2018-10-03T09:36:55.297Z,7.00
2018-10-03T09:37:58.931Z,7.60
2018-10-03T09:39:03.239Z,10.45
2018-10-03T09:40:06.903Z,13.93
2018-10-03T09:41:10.624Z,11.10
2018-10-03T09:42:14.251Z,9.68
2018-10-03T09:43:17.850Z,16.40
2018-10-03T09:44:21.457Z,9.50
2018-10-03T09:45:24.967Z,9.78
2018-10-03T09:46:28.468Z,10.15
2018-10-03T09:47:32.003Z,11.83
2018-10-03T09:48:35.557Z,7.25
2018-10-03T09:49:39.101Z,8.35
2018-10-03T09:50:42.649Z,11.57
2018-10-03T09:51:46.270Z,8.00
2018-10-03T09:52:49.799Z,10.78
2018-10-03T09:53:53.396Z,8.23
2018-10-03T09:54:56.949Z,9.68
2018-10-03T09:56:00.492Z,7.67
2018-10-03T09:57:04.032Z,8.93
2018-10-03T09:58:07.498Z,6.67
2018-10-03T09:59:11.038Z,6.10
2018-10-03T10:00:18.800Z,6.25
2018-10-03T10:01:27.492Z,6.45
2018-10-03T10:02:31.063Z,7.97
2018-10-03T10:03:34.615Z,9.35
2018-10-03T10:04:38.548Z,11.63
2018-10-03T10:05:42.086Z,9.03
2018-10-03T10:06:45.640Z,9.90
2018-10-03T10:07:49.196Z,9.68
2018-10-03T10:08:52.750Z,9.48
2018-10-03T10:09:56.314Z,5.95
2018-10-03T10:10:59.893Z,15.45
2018-10-03T10:12:03.513Z,9.08
2018-10-03T10:13:07.052Z,8.40
2018-10-03T10:14:10.686Z,10.78
2018-10-03T10:15:14.264Z,9.43
2018-10-03T10:17:38.492Z,7.03
2018-10-03T10:18:42.138Z,7.25
2018-10-03T10:19:45.649Z,9.50
2018-10-03T10:20:49.574Z,8.68
2018-10-03T10:21:53.077Z,9.70
2018-10-03T10:22:56.765Z,9.83
2018-10-03T10:24:00.571Z,9.67
2018-10-03T10:25:04.251Z,8.50
2018-10-03T10:26:07.781Z,7.28
2018-10-03T10:27:12.036Z,7.95
2018-10-03T10:28:15.860Z,9.33
2018-10-03T10:29:19.443Z,8.60
2018-10-03T10:30:22.971Z,9.55
2018-10-03T10:31:26.477Z,8.03
2018-10-03T10:32:30.202Z,9.35
2018-10-03T10:33:33.711Z,9.60
2018-10-03T10:34:37.290Z,9.38
2018-10-03T10:35:40.853Z,10.80
2018-10-03T10:36:44.483Z,10.68
2018-10-03T10:37:48.166Z,6.67
2018-10-03T10:38:51.657Z,9.63
2018-10-03T10:39:55.292Z,12.70
2018-10-03T10:40:58.899Z,7.55
2018-10-03T10:42:02.496Z,7.15
2018-10-03T10:43:06.027Z,13.40
2018-10-03T10:44:09.590Z,8.90
2018-10-03T10:45:13.318Z,5.40
2018-10-03T10:46:16.832Z,7.53
2018-10-03T10:47:20.449Z,7.35
2018-10-03T10:48:24.117Z,4.92
2018-10-03T10:49:27.753Z,14.28
2018-10-03T10:50:31.364Z,7.72
2018-10-03T10:51:35.103Z,7.25
2018-10-03T10:52:38.840Z,7.67
2018-10-03T10:53:42.727Z,7.17
2018-10-03T10:54:46.253Z,8.13
2018-10-03T10:55:49.929Z,12.40
2018-10-03T10:56:53.629Z,7.62
2018-10-03T10:57:57.167Z,8.13
2018-10-03T10:59:00.795Z,8.78
2018-10-03T11:00:04.452Z,7.10
2018-10-03T11:01:08.133Z,9.40
2018-10-03T11:02:11.824Z,5.72
2018-10-03T11:03:15.618Z,6.70
2018-10-03T11:04:19.290Z,8.50
2018-10-03T11:05:22.932Z,8.93
2018-10-03T11:06:27.040Z,8.05
2018-10-03T11:07:30.676Z,10.78
2018-10-03T11:08:34.219Z,8.85
2018-10-03T11:09:38.156Z,6.53
2018-10-03T11:10:41.773Z,7.20
2018-10-03T11:11:45.353Z,11.10
2018-10-03T11:12:49.813Z,7.92
2018-10-03T11:13:54.130Z,7.47
2018-10-03T11:14:57.872Z,12.78
2018-10-03T11:16:01.480Z,10.05
2018-10-03T11:17:05.198Z,10.93
2018-10-03T11:18:09.718Z,9.65
2018-10-03T11:19:13.416Z,7.47
2018-10-03T11:20:16.986Z,7.45
2018-10-03T11:21:20.706Z,6.12
2018-10-03T11:22:24.518Z,5.97
2018-10-03T11:23:28.191Z,7.30
2018-10-03T11:24:31.988Z,7.35
2018-10-03T11:25:35.402Z,7.53
2018-10-03T11:26:39.056Z,5.72
2018-10-03T11:27:43.761Z,9.85
2018-10-03T11:28:47.415Z,10.15
2018-10-03T11:29:51.654Z,6.30
2018-10-03T11:30:55.224Z,7.15
2018-10-03T11:31:58.911Z,10.55
2018-10-03T11:33:02.515Z,11.63
2018-10-03T11:34:06.182Z,6.37
2018-10-03T11:35:09.794Z,10.20
2018-10-03T11:36:14.107Z,11.18
2018-10-03T11:37:17.807Z,7.25
2018-10-03T11:38:21.556Z,7.10
2018-10-03T11:39:25.120Z,7.05
2018-10-03T11:40:28.600Z,10.10
2018-10-03T11:41:32.188Z,8.10
2018-10-03T11:42:35.838Z,4.22
2018-10-03T11:43:39.543Z,7.25
2018-10-03T11:44:43.527Z,3.22
2018-10-03T11:45:47.692Z,4.83
2018-10-03T11:46:51.340Z,6.50
2018-10-03T11:47:54.956Z,7.95
2018-10-03T11:48:58.659Z,8.78
2018-10-03T11:50:02.396Z,7.33
2018-10-03T11:51:06.003Z,6.22
2018-10-03T11:52:10.829Z,7.25
2018-10-03T11:53:14.601Z,10.20
2018-10-03T11:54:18.092Z,4.65
2018-10-03T11:55:21.691Z,5.50
2018-10-03T11:56:25.350Z,6.47
2018-10-03T11:57:29.033Z,7.17
2018-10-03T11:58:32.701Z,7.25
2018-10-03T11:59:36.649Z,7.92
2018-10-03T12:00:40.165Z,7.20
2018-10-03T12:01:43.917Z,6.65
2018-10-03T12:02:47.716Z,8.83
2018-10-03T12:03:51.376Z,5.33
2018-10-03T12:04:55.362Z,2.95
2018-10-03T12:05:58.901Z,6.40
2018-10-03T12:07:02.545Z,6.50
2018-10-03T12:08:06.207Z,3.95
2018-10-03T12:09:11.892Z,4.20
2018-10-03T12:10:15.508Z,6.22
2018-10-03T12:11:19.122Z,6.35
2018-10-03T12:12:23.374Z,5.37
2018-10-03T12:13:26.929Z,6.28
2018-10-03T12:14:30.612Z,4.75
2018-10-03T12:15:35.003Z,7.25
2018-10-03T12:16:39.093Z,7.03
2018-10-03T12:17:42.778Z,6.62
2018-10-03T12:18:46.299Z,6.08
2018-10-03T12:19:49.856Z,5.75
2018-10-03T12:20:53.536Z,6.75
2018-10-03T12:21:57.716Z,9.53
2018-10-03T12:23:01.477Z,8.30
2018-10-03T12:24:04.995Z,9.48
2018-10-03T12:25:08.725Z,6.75
2018-10-03T12:26:12.467Z,9.20
2018-10-03T12:27:15.950Z,4.62
2018-10-03T12:28:19.628Z,5.58
2018-10-03T12:29:23.292Z,11.03
2018-10-03T12:30:26.901Z,3.95
2018-10-03T12:31:31.056Z,6.20
2018-10-03T12:32:34.815Z,6.78
2018-10-03T12:33:38.387Z,7.80
2018-10-03T12:34:42.552Z,5.33
2018-10-03T12:35:46.146Z,6.95
2018-10-03T12:36:49.680Z,7.65
2018-10-03T12:37:53.296Z,7.40
2018-10-03T12:38:57.035Z,3.80
2018-10-03T12:40:00.552Z,5.47
2018-10-03T12:41:04.192Z,4.03
2018-10-03T12:42:07.704Z,4.65
2018-10-03T12:43:11.512Z,6.22
2018-10-03T12:44:15.178Z,5.33
2018-10-03T12:45:19.289Z,7.08
2018-10-03T12:46:23.105Z,7.00
2018-10-03T12:47:26.911Z,7.30
2018-10-03T12:48:30.658Z,5.25
2018-10-03T12:49:35.511Z,4.05
2018-10-03T12:50:39.017Z,4.87
2018-10-03T12:51:42.751Z,6.22
2018-10-03T12:52:46.546Z,6.12
2018-10-03T12:53:50.296Z,5.15
2018-10-03T12:54:53.857Z,3.83
2018-10-03T12:55:57.275Z,5.12
2018-10-03T12:57:00.975Z,4.60
2018-10-03T12:58:04.737Z,5.90
2018-10-03T12:59:08.534Z,6.55
2018-10-03T13:00:13.098Z,3.33
2018-10-03T13:01:16.988Z,4.37
2018-10-03T13:02:20.660Z,4.67
2018-10-03T13:03:25.393Z,3.50
2018-10-03T13:04:29.106Z,4.40
2018-10-03T13:05:32.817Z,4.28
2018-10-03T13:06:37.381Z,7.37
2018-10-03T13:07:41.409Z,4.95
2018-10-03T13:08:45.148Z,4.67
2018-10-03T13:09:49.094Z,6.10
2018-10-03T13:10:52.751Z,4.25
2018-10-03T13:11:56.445Z,4.08
2018-10-03T13:12:59.976Z,5.67
2018-10-03T13:14:03.633Z,5.97
2018-10-03T13:15:07.394Z,3.67
2018-10-03T13:16:11.855Z,5.40
2018-10-03T13:17:15.392Z,6.62
2018-10-03T13:18:18.982Z,4.92
2018-10-03T13:19:22.569Z,2.65
2018-10-03T13:20:27.010Z,8.60
2018-10-03T13:21:31.272Z,4.25
2018-10-03T13:22:34.875Z,5.72
2018-10-03T13:23:38.470Z,7.35
2018-10-03T13:24:42.271Z,4.95
2018-10-03T13:25:46.011Z,5.50
2018-10-03T13:26:49.642Z,4.37
2018-10-03T13:27:54.047Z,3.62
2018-10-03T13:28:57.762Z,4.10
2018-10-03T13:30:01.444Z,6.28
2018-10-03T13:31:05.069Z,3.00
2018-10-03T13:32:08.682Z,4.47
2018-10-03T13:33:12.440Z,3.85
2018-10-03T13:34:16.025Z,6.62
2018-10-03T13:35:19.664Z,5.25
2018-10-03T13:36:23.325Z,5.90
2018-10-03T13:37:26.844Z,3.83
2018-10-03T13:38:30.445Z,6.40
2018-10-03T13:39:34.103Z,6.10
2018-10-03T13:40:37.648Z,5.03
2018-10-03T13:41:41.164Z,9.08
2018-10-03T13:42:44.736Z,5.37
2018-10-03T13:43:48.657Z,6.00
2018-10-03T13:44:52.120Z,5.33
2018-10-03T13:45:55.828Z,8.85
2018-10-03T13:46:59.508Z,3.83
2018-10-03T13:48:03.537Z,7.53
2018-10-03T13:49:07.129Z,2.95
2018-10-03T13:50:11.755Z,6.78
2018-10-03T13:51:15.387Z,3.25
2018-10-03T13:52:18.985Z,4.85
2018-10-03T13:53:22.720Z,6.90
2018-10-03T13:54:27.018Z,3.50
2018-10-03T13:55:30.670Z,5.35
2018-10-03T13:56:34.227Z,9.40